sensor_id;sensor_type;location;lat;lon;timestamp;pressure;altitude;pressure_sealevel;temperature;humidity
4133;BME280;2080;51.038;7.008;2023-05-16T00:00:58;47820.03;;;-142.53;100.00
4133;BME280;2080;51.038;7.008;2023-05-16T00:03:25;47798.84;;;-142.53;100.00
4133;BME280;2080;51.038;7.008;2023-05-16T00:05:51;47746.84;;;-142.53;100.00
4133;BME280;2080;51.038;7.008;2023-05-16T00:08:20;47814.25;;;-142.53;100.00
4133;BME280;2080;51.038;7.008;2023-05-16T00:10:45;47750.69;;;-142.53;100.00
4133;BME280;2080;51.038;7.008;2023-05-16T00:13:10;47816.19;;;-142.53;100.00
4133;BME280;2080;51.038;7.008;2023-05-16T00:15:36;47783.44;;;-142.53;100.00
4133;BME280;2080;51.038;7.008;2023-05-16T00:18:04;47802.69;;;-142.53;100.00
4133;BME280;2080;51.038;7.008;2023-05-16T00:20:30;47798.84;;;-142.53;100.00
4133;BME280;2080;51.038;7.008;2023-05-16T00:22:56;47806.53;;;-142.53;100.00
4133;BME280;2080;51.038;7.008;2023-05-16T00:25:28;47795.00;;;-142.53;100.00
4133;BME280;2080;51.038;7.008;2023-05-16T00:27:56;47810.41;;;-142.53;100.00
4133;BME280;2080;51.038;7.008;2023-05-16T00:30:23;47777.66;;;-142.53;100.00
4133;BME280;2080;51.038;7.008;2023-05-16T00:32:48;47802.69;;;-142.53;100.00
4133;BME280;2080;51.038;7.008;2023-05-16T00:35:14;47764.16;;;-142.53;100.00
4133;BME280;2080;51.038;7.008;2023-05-16T00:37:39;47760.31;;;-142.53;100.00
4133;BME280;2080;51.038;7.008;2023-05-16T00:40:05;47795.00;;;-142.53;100.00
4133;BME280;2080;51.038;7.008;2023-05-16T00:42:33;47789.22;;;-142.53;100.00
4133;BME280;2080;51.038;7.008;2023-05-16T00:44:59;47775.72;;;-142.53;100.00
4133;BME280;2080;51.038;7.008;2023-05-16T00:47:24;47810.41;;;-142.53;100.00
4133;BME280;2080;51.038;7.008;2023-05-16T00:49:52;47837.38;;;-142.53;100.00
4133;BME280;2080;51.038;7.008;2023-05-16T00:52:17;47814.25;;;-142.53;100.00
4133;BME280;2080;51.038;7.008;2023-05-16T00:54:43;47821.94;;;-142.53;100.00
4133;BME280;2080;51.038;7.008;2023-05-16T00:57:08;47833.50;;;-142.53;100.00
4133;BME280;2080;51.038;7.008;2023-05-16T00:59:36;47795.00;;;-142.53;100.00
4133;BME280;2080;51.038;7.008;2023-05-16T01:02:04;47868.19;;;-142.53;100.00
4133;BME280;2080;51.038;7.008;2023-05-16T01:04:31;47806.53;;;-142.53;100.00
4133;BME280;2080;51.038;7.008;2023-05-16T01:06:59;47827.72;;;-142.53;100.00
4133;BME280;2080;51.038;7.008;2023-05-16T01:09:27;47814.25;;;-142.53;100.00
4133;BME280;2080;51.038;7.008;2023-05-16T01:17:06;47804.63;;;-142.53;100.00
4133;BME280;2080;51.038;7.008;2023-05-16T01:22:37;47818.09;;;-142.53;100.00
4133;BME280;2080;51.038;7.008;2023-05-16T01:27:56;47845.06;;;-142.53;100.00
4133;BME280;2080;51.038;7.008;2023-05-16T01:30:21;47829.66;;;-142.53;100.00
4133;BME280;2080;51.038;7.008;2023-05-16T01:32:49;47814.25;;;-142.53;100.00
4133;BME280;2080;51.038;7.008;2023-05-16T01:35:20;47831.59;;;-142.53;100.00
4133;BME280;2080;51.038;7.008;2023-05-16T01:38:08;47754.53;;;-142.53;100.00
4133;BME280;2080;51.038;7.008;2023-05-16T01:43:20;47875.88;;;-142.53;100.00
4133;BME280;2080;51.038;7.008;2023-05-16T01:45:54;47825.81;;;-142.53;100.00
4133;BME280;2080;51.038;7.008;2023-05-16T01:48:23;47856.63;;;-142.53;100.00
4133;BME280;2080;51.038;7.008;2023-05-16T01:50:54;47843.13;;;-142.53;100.00
4133;BME280;2080;51.038;7.008;2023-05-16T01:53:26;47802.69;;;-142.53;100.00
4133;BME280;2080;51.038;7.008;2023-05-16T01:56:01;47845.06;;;-142.53;100.00
4133;BME280;2080;51.038;7.008;2023-05-16T01:58:32;47872.03;;;-142.53;100.00
4133;BME280;2080;51.038;7.008;2023-05-16T02:01:00;47806.53;;;-142.53;100.00
4133;BME280;2080;51.038;7.008;2023-05-16T02:03:30;47825.81;;;-142.53;100.00
4133;BME280;2080;51.038;7.008;2023-05-16T02:05:56;47814.25;;;-142.53;100.00
4133;BME280;2080;51.038;7.008;2023-05-16T02:08:23;47831.59;;;-142.53;100.00
4133;BME280;2080;51.038;7.008;2023-05-16T02:10:48;47806.53;;;-142.53;100.00
4133;BME280;2080;51.038;7.008;2023-05-16T02:13:14;47808.47;;;-142.53;100.00
4133;BME280;2080;51.038;7.008;2023-05-16T02:15:39;47783.44;;;-142.53;100.00
4133;BME280;2080;51.038;7.008;2023-05-16T02:18:05;47814.25;;;-142.53;100.00
4133;BME280;2080;51.038;7.008;2023-05-16T02:20:33;47825.81;;;-142.53;100.00
4133;BME280;2080;51.038;7.008;2023-05-16T02:22:58;47845.06;;;-142.53;100.00
4133;BME280;2080;51.038;7.008;2023-05-16T02:25:24;47779.59;;;-142.53;100.00
4133;BME280;2080;51.038;7.008;2023-05-16T02:27:50;47864.31;;;-142.53;100.00
4133;BME280;2080;51.038;7.008;2023-05-16T02:30:18;47845.06;;;-142.53;100.00
4133;BME280;2080;51.038;7.008;2023-05-16T02:32:45;47814.25;;;-142.53;100.00
4133;BME280;2080;51.038;7.008;2023-05-16T02:35:13;47806.53;;;-142.53;100.00
4133;BME280;2080;51.038;7.008;2023-05-16T02:37:39;47821.94;;;-142.53;100.00
4133;BME280;2080;51.038;7.008;2023-05-16T02:40:07;47852.78;;;-142.53;100.00
4133;BME280;2080;51.038;7.008;2023-05-16T02:42:33;47821.94;;;-142.53;100.00
4133;BME280;2080;51.038;7.008;2023-05-16T02:44:58;47818.09;;;-142.53;100.00
4133;BME280;2080;51.038;7.008;2023-05-16T02:47:24;47825.81;;;-142.53;100.00
4133;BME280;2080;51.038;7.008;2023-05-16T02:49:51;47868.19;;;-142.53;100.00
4133;BME280;2080;51.038;7.008;2023-05-16T02:52:18;47820.03;;;-142.53;100.00
4133;BME280;2080;51.038;7.008;2023-05-16T02:54:43;47818.09;;;-142.53;100.00
4133;BME280;2080;51.038;7.008;2023-05-16T02:57:08;47845.06;;;-142.53;100.00
4133;BME280;2080;51.038;7.008;2023-05-16T02:59:39;47852.78;;;-142.53;100.00
4133;BME280;2080;51.038;7.008;2023-05-16T03:02:04;47829.66;;;-142.53;100.00
4133;BME280;2080;51.038;7.008;2023-05-16T03:04:30;47787.28;;;-142.53;100.00
4133;BME280;2080;51.038;7.008;2023-05-16T03:06:57;47856.63;;;-142.53;100.00
4133;BME280;2080;51.038;7.008;2023-05-16T03:09:23;47820.03;;;-142.53;100.00
4133;BME280;2080;51.038;7.008;2023-05-16T03:11:50;47845.06;;;-142.53;100.00
4133;BME280;2080;51.038;7.008;2023-05-16T03:14:18;47823.88;;;-142.53;100.00
4133;BME280;2080;51.038;7.008;2023-05-16T03:16:46;47847.00;;;-142.53;100.00
4133;BME280;2080;51.038;7.008;2023-05-16T03:19:11;47821.94;;;-142.53;100.00
4133;BME280;2080;51.038;7.008;2023-05-16T03:21:38;47835.44;;;-142.53;100.00
4133;BME280;2080;51.038;7.008;2023-05-16T03:24:05;47796.91;;;-142.53;100.00
4133;BME280;2080;51.038;7.008;2023-05-16T03:26:34;47810.41;;;-142.53;100.00
4133;BME280;2080;51.038;7.008;2023-05-16T03:29:00;47848.91;;;-142.53;100.00
4133;BME280;2080;51.038;7.008;2023-05-16T03:31:25;47848.91;;;-142.53;100.00
4133;BME280;2080;51.038;7.008;2023-05-16T03:33:50;47821.94;;;-142.53;100.00
4133;BME280;2080;51.038;7.008;2023-05-16T03:36:16;47814.25;;;-142.53;100.00
4133;BME280;2080;51.038;7.008;2023-05-16T03:38:41;47868.19;;;-142.53;100.00
4133;BME280;2080;51.038;7.008;2023-05-16T03:41:09;47856.63;;;-142.53;100.00
4133;BME280;2080;51.038;7.008;2023-05-16T03:43:34;47806.53;;;-142.53;100.00
4133;BME280;2080;51.038;7.008;2023-05-16T03:46:04;47818.09;;;-142.53;100.00
4133;BME280;2080;51.038;7.008;2023-05-16T03:48:29;47837.38;;;-142.53;100.00
4133;BME280;2080;51.038;7.008;2023-05-16T03:50:54;47845.06;;;-142.53;100.00
4133;BME280;2080;51.038;7.008;2023-05-16T03:53:22;47866.25;;;-142.53;100.00
4133;BME280;2080;51.038;7.008;2023-05-16T03:55:47;47854.69;;;-142.53;100.00
4133;BME280;2080;51.038;7.008;2023-05-16T03:58:13;47825.81;;;-142.53;100.00
4133;BME280;2080;51.038;7.008;2023-05-16T04:00:38;47845.06;;;-142.53;100.00
4133;BME280;2080;51.038;7.008;2023-05-16T04:03:04;47875.88;;;-142.53;100.00
4133;BME280;2080;51.038;7.008;2023-05-16T04:05:29;47854.69;;;-142.53;100.00
4133;BME280;2080;51.038;7.008;2023-05-16T04:07:54;47833.50;;;-142.53;100.00
4133;BME280;2080;51.038;7.008;2023-05-16T04:10:22;47864.31;;;-142.53;100.00
4133;BME280;2080;51.038;7.008;2023-05-16T04:12:47;47829.66;;;-142.53;100.00
4133;BME280;2080;51.038;7.008;2023-05-16T04:15:13;47845.06;;;-142.53;100.00
4133;BME280;2080;51.038;7.008;2023-05-16T04:17:40;47845.06;;;-142.53;100.00
4133;BME280;2080;51.038;7.008;2023-05-16T04:20:08;47823.88;;;-142.53;100.00
4133;BME280;2080;51.038;7.008;2023-05-16T04:22:34;47854.69;;;-142.53;100.00
4133;BME280;2080;51.038;7.008;2023-05-16T04:24:59;47793.06;;;-142.53;100.00
4133;BME280;2080;51.038;7.008;2023-05-16T04:27:25;47845.06;;;-142.53;100.00
4133;BME280;2080;51.038;7.008;2023-05-16T04:29:51;47827.72;;;-142.53;100.00
4133;BME280;2080;51.038;7.008;2023-05-16T04:32:16;47914.41;;;-142.53;100.00
4133;BME280;2080;51.038;7.008;2023-05-16T04:34:46;47800.78;;;-142.53;100.00
4133;BME280;2080;51.038;7.008;2023-05-16T04:37:12;47835.44;;;-142.53;100.00
4133;BME280;2080;51.038;7.008;2023-05-16T04:39:38;47795.00;;;-142.53;100.00
4133;BME280;2080;51.038;7.008;2023-05-16T04:42:04;47848.91;;;-142.53;100.00
4133;BME280;2080;51.038;7.008;2023-05-16T04:44:32;47825.81;;;-142.53;100.00
4133;BME280;2080;51.038;7.008;2023-05-16T04:46:58;47852.78;;;-142.53;100.00
4133;BME280;2080;51.038;7.008;2023-05-16T04:49:23;47818.09;;;-142.53;100.00
4133;BME280;2080;51.038;7.008;2023-05-16T04:51:49;47837.38;;;-142.53;100.00
4133;BME280;2080;51.038;7.008;2023-05-16T04:54:17;47839.28;;;-142.53;100.00
4133;BME280;2080;51.038;7.008;2023-05-16T04:56:45;47821.94;;;-142.53;100.00
4133;BME280;2080;51.038;7.008;2023-05-16T04:59:10;47814.25;;;-142.53;100.00
4133;BME280;2080;51.038;7.008;2023-05-16T05:01:35;47839.28;;;-142.53;100.00
4133;BME280;2080;51.038;7.008;2023-05-16T05:04:01;47810.41;;;-142.53;100.00
4133;BME280;2080;51.038;7.008;2023-05-16T05:06:28;47814.25;;;-142.53;100.00
4133;BME280;2080;51.038;7.008;2023-05-16T05:08:56;47852.78;;;-142.53;100.00
4133;BME280;2080;51.038;7.008;2023-05-16T05:11:21;47856.63;;;-142.53;100.00
4133;BME280;2080;51.038;7.008;2023-05-16T05:13:53;47848.91;;;-142.53;100.00
4133;BME280;2080;51.038;7.008;2023-05-16T05:16:21;47881.66;;;-142.53;100.00
4133;BME280;2080;51.038;7.008;2023-05-16T05:18:46;47814.25;;;-142.53;100.00
4133;BME280;2080;51.038;7.008;2023-05-16T05:21:12;47868.19;;;-142.53;100.00
4133;BME280;2080;51.038;7.008;2023-05-16T05:23:37;47860.47;;;-142.53;100.00
4133;BME280;2080;51.038;7.008;2023-05-16T05:26:03;47825.81;;;-142.53;100.00
4133;BME280;2080;51.038;7.008;2023-05-16T05:28:28;47806.53;;;-142.53;100.00
4133;BME280;2080;51.038;7.008;2023-05-16T05:30:53;47854.69;;;-142.53;100.00
4133;BME280;2080;51.038;7.008;2023-05-16T05:33:26;47852.78;;;-142.53;100.00
4133;BME280;2080;51.038;7.008;2023-05-16T05:35:52;47852.78;;;-142.53;100.00
4133;BME280;2080;51.038;7.008;2023-05-16T05:38:20;47883.59;;;-142.53;100.00
4133;BME280;2080;51.038;7.008;2023-05-16T05:40:48;47835.44;;;-142.53;100.00
4133;BME280;2080;51.038;7.008;2023-05-16T05:43:16;47837.38;;;-142.53;100.00
4133;BME280;2080;51.038;7.008;2023-05-16T05:45:43;47825.81;;;-142.53;100.00
4133;BME280;2080;51.038;7.008;2023-05-16T05:48:11;47864.31;;;-142.53;100.00
4133;BME280;2080;51.038;7.008;2023-05-16T05:50:36;47960.63;;;-142.53;100.00
4133;BME280;2080;51.038;7.008;2023-05-16T05:53:02;47791.13;;;-142.53;100.00
4133;BME280;2080;51.038;7.008;2023-05-16T05:55:27;47829.66;;;-142.53;100.00
4133;BME280;2080;51.038;7.008;2023-05-16T05:57:53;47833.50;;;-142.53;100.00
4133;BME280;2080;51.038;7.008;2023-05-16T06:00:18;47848.91;;;-142.53;100.00
4133;BME280;2080;51.038;7.008;2023-05-16T06:02:43;47814.25;;;-142.53;100.00
4133;BME280;2080;51.038;7.008;2023-05-16T06:05:09;47814.25;;;-142.53;100.00
4133;BME280;2080;51.038;7.008;2023-05-16T06:07:34;47841.22;;;-142.53;100.00
4133;BME280;2080;51.038;7.008;2023-05-16T06:10:02;47868.19;;;-142.53;100.00
4133;BME280;2080;51.038;7.008;2023-05-16T06:12:30;47721.78;;;-142.53;100.00
4133;BME280;2080;51.038;7.008;2023-05-16T06:14:56;47810.41;;;-142.53;100.00
4133;BME280;2080;51.038;7.008;2023-05-16T06:17:23;47835.44;;;-142.53;100.00
4133;BME280;2080;51.038;7.008;2023-05-16T06:19:49;47816.19;;;-142.53;100.00
4133;BME280;2080;51.038;7.008;2023-05-16T06:22:14;47848.91;;;-142.53;100.00
4133;BME280;2080;51.038;7.008;2023-05-16T06:24:39;47814.25;;;-142.53;100.00
4133;BME280;2080;51.038;7.008;2023-05-16T06:27:07;47837.38;;;-142.53;100.00
4133;BME280;2080;51.038;7.008;2023-05-16T06:29:34;47845.06;;;-142.53;100.00
4133;BME280;2080;51.038;7.008;2023-05-16T06:32:02;47831.59;;;-142.53;100.00
4133;BME280;2080;51.038;7.008;2023-05-16T06:34:28;47845.06;;;-142.53;100.00
4133;BME280;2080;51.038;7.008;2023-05-16T06:36:53;47864.31;;;-142.53;100.00
4133;BME280;2080;51.038;7.008;2023-05-16T06:39:19;47795.00;;;-142.53;100.00
4133;BME280;2080;51.038;7.008;2023-05-16T06:41:45;47810.41;;;-142.53;100.00
4133;BME280;2080;51.038;7.008;2023-05-16T06:44:12;47798.84;;;-142.53;100.00
4133;BME280;2080;51.038;7.008;2023-05-16T06:46:40;47771.88;;;-142.53;100.00
4133;BME280;2080;51.038;7.008;2023-05-16T06:49:05;47802.69;;;-142.53;100.00
4133;BME280;2080;51.038;7.008;2023-05-16T06:51:31;47771.88;;;-142.53;100.00
4133;BME280;2080;51.038;7.008;2023-05-16T06:53:56;47781.50;;;-142.53;100.00
4133;BME280;2080;51.038;7.008;2023-05-16T06:56:22;47833.50;;;-142.53;99.17
4133;BME280;2080;51.038;7.008;2023-05-16T06:58:48;47804.63;;;-142.53;98.26
4133;BME280;2080;51.038;7.008;2023-05-16T07:01:14;47783.44;;;-142.53;93.58
4133;BME280;2080;51.038;7.008;2023-05-16T07:03:41;47829.66;;;-142.53;99.64
4133;BME280;2080;51.038;7.008;2023-05-16T07:06:07;47829.66;;;-142.53;95.16
4133;BME280;2080;51.038;7.008;2023-05-16T07:08:34;47812.31;;;-142.53;94.97
4133;BME280;2080;51.038;7.008;2023-05-16T07:11:01;47821.94;;;-142.53;97.15
4133;BME280;2080;51.038;7.008;2023-05-16T07:13:26;47818.09;;;-142.53;94.77
4133;BME280;2080;51.038;7.008;2023-05-16T07:15:52;47845.06;;;-142.53;91.42
4133;BME280;2080;51.038;7.008;2023-05-16T07:18:18;47814.25;;;-142.53;88.77
4133;BME280;2080;51.038;7.008;2023-05-16T07:20:43;47810.41;;;-142.53;90.98
4133;BME280;2080;51.038;7.008;2023-05-16T07:23:10;47733.34;;;-142.53;90.83
4133;BME280;2080;51.038;7.008;2023-05-16T07:25:35;47800.78;;;-142.53;87.87
4133;BME280;2080;51.038;7.008;2023-05-16T07:28:01;47791.13;;;-142.53;86.70
4133;BME280;2080;51.038;7.008;2023-05-16T07:30:26;47837.38;;;-142.53;88.65
4133;BME280;2080;51.038;7.008;2023-05-16T07:32:51;47760.31;;;-142.53;85.49
4133;BME280;2080;51.038;7.008;2023-05-16T07:35:19;47802.69;;;-142.53;81.51
4133;BME280;2080;51.038;7.008;2023-05-16T07:37:45;47758.41;;;-142.53;83.86
4133;BME280;2080;51.038;7.008;2023-05-16T07:40:11;47843.13;;;-142.53;77.59
4133;BME280;2080;51.038;7.008;2023-05-16T07:42:36;47829.66;;;-142.53;80.68
4133;BME280;2080;51.038;7.008;2023-05-16T07:45:05;47829.66;;;-142.53;84.78
4133;BME280;2080;51.038;7.008;2023-05-16T07:47:35;47795.00;;;-142.53;88.85
4133;BME280;2080;51.038;7.008;2023-05-16T07:50:01;47814.25;;;-142.53;84.99
4133;BME280;2080;51.038;7.008;2023-05-16T07:52:26;47795.00;;;-142.53;87.04
4133;BME280;2080;51.038;7.008;2023-05-16T07:54:54;47860.47;;;-142.53;87.83
4133;BME280;2080;51.038;7.008;2023-05-16T07:57:20;47818.09;;;-142.53;91.34
4133;BME280;2080;51.038;7.008;2023-05-16T07:59:45;47845.06;;;-142.53;99.09
4133;BME280;2080;51.038;7.008;2023-05-16T08:02:11;47825.81;;;-142.53;91.51
4133;BME280;2080;51.038;7.008;2023-05-16T08:04:36;47810.41;;;-142.53;89.48
4133;BME280;2080;51.038;7.008;2023-05-16T08:07:02;47785.34;;;-142.53;85.66
4133;BME280;2080;51.038;7.008;2023-05-16T08:09:27;47818.09;;;-142.53;84.02
4133;BME280;2080;51.038;7.008;2023-05-16T08:11:53;47816.19;;;-142.53;83.49
4133;BME280;2080;51.038;7.008;2023-05-16T08:14:21;47796.91;;;-142.53;76.60
4133;BME280;2080;51.038;7.008;2023-05-16T08:16:46;47831.59;;;-142.53;84.03
4133;BME280;2080;51.038;7.008;2023-05-16T08:19:11;47806.53;;;-142.53;72.94
4133;BME280;2080;51.038;7.008;2023-05-16T08:21:40;47806.53;;;-142.53;80.86
4133;BME280;2080;51.038;7.008;2023-05-16T08:24:05;47837.38;;;-142.53;80.06
4133;BME280;2080;51.038;7.008;2023-05-16T08:26:31;47814.25;;;-142.53;74.23
4133;BME280;2080;51.038;7.008;2023-05-16T08:29:03;47833.50;;;-142.53;69.54
4133;BME280;2080;51.038;7.008;2023-05-16T08:31:29;47804.63;;;-142.53;68.33
4133;BME280;2080;51.038;7.008;2023-05-16T08:33:56;47791.13;;;-142.53;65.63
4133;BME280;2080;51.038;7.008;2023-05-16T08:36:22;47795.00;;;-142.53;76.33
4133;BME280;2080;51.038;7.008;2023-05-16T08:38:49;47791.13;;;-142.53;72.07
4133;BME280;2080;51.038;7.008;2023-05-16T08:41:14;47775.72;;;-142.53;59.93
4133;BME280;2080;51.038;7.008;2023-05-16T08:43:44;47821.94;;;-142.53;59.13
4133;BME280;2080;51.038;7.008;2023-05-16T08:46:12;47821.94;;;-142.53;59.30
4133;BME280;2080;51.038;7.008;2023-05-16T08:48:37;47837.38;;;-142.53;58.39
4133;BME280;2080;51.038;7.008;2023-05-16T08:51:05;47802.69;;;-142.53;73.32
4133;BME280;2080;51.038;7.008;2023-05-16T08:53:39;47837.38;;;-142.53;62.33
4133;BME280;2080;51.038;7.008;2023-05-16T08:56:08;47766.09;;;-142.53;67.26
4133;BME280;2080;51.038;7.008;2023-05-16T08:58:37;47808.47;;;-142.53;53.85
4133;BME280;2080;51.038;7.008;2023-05-16T09:01:03;47779.59;;;-142.53;56.11
4133;BME280;2080;51.038;7.008;2023-05-16T09:03:34;47795.00;;;-142.53;55.40
4133;BME280;2080;51.038;7.008;2023-05-16T09:06:06;47777.66;;;-142.53;52.21
4133;BME280;2080;51.038;7.008;2023-05-16T09:08:31;47791.13;;;-142.53;50.58
4133;BME280;2080;51.038;7.008;2023-05-16T09:10:57;47783.44;;;-142.53;55.36
4133;BME280;2080;51.038;7.008;2023-05-16T09:13:24;47775.72;;;-142.53;49.58
4133;BME280;2080;51.038;7.008;2023-05-16T09:18:53;47729.50;;;-142.53;47.57
4133;BME280;2080;51.038;7.008;2023-05-16T09:21:21;47741.06;;;-142.53;53.57
4133;BME280;2080;51.038;7.008;2023-05-16T09:23:50;47771.88;;;-142.53;54.51
4133;BME280;2080;51.038;7.008;2023-05-16T09:26:19;47758.41;;;-142.53;47.41
4133;BME280;2080;51.038;7.008;2023-05-16T09:28:52;47795.00;;;-142.53;49.89
4133;BME280;2080;51.038;7.008;2023-05-16T09:31:26;47806.53;;;-142.53;43.50
4133;BME280;2080;51.038;7.008;2023-05-16T09:33:52;47777.66;;;-142.53;46.62
4133;BME280;2080;51.038;7.008;2023-05-16T09:36:19;47744.91;;;-142.53;50.24
4133;BME280;2080;51.038;7.008;2023-05-16T09:38:49;47771.88;;;-142.53;47.81
4133;BME280;2080;51.038;7.008;2023-05-16T09:41:15;47750.69;;;-142.53;46.68
4133;BME280;2080;51.038;7.008;2023-05-16T09:43:43;47802.69;;;-142.53;47.08
4133;BME280;2080;51.038;7.008;2023-05-16T09:46:12;47785.34;;;-142.53;45.58
4133;BME280;2080;51.038;7.008;2023-05-16T09:48:45;47775.72;;;-142.53;44.06
4133;BME280;2080;51.038;7.008;2023-05-16T09:51:12;47771.88;;;-142.53;44.25
4133;BME280;2080;51.038;7.008;2023-05-16T09:53:38;47771.88;;;-142.53;45.40
4133;BME280;2080;51.038;7.008;2023-05-16T09:56:09;47821.94;;;-142.53;44.58
4133;BME280;2080;51.038;7.008;2023-05-16T09:58:39;47818.09;;;-142.53;43.16
4133;BME280;2080;51.038;7.008;2023-05-16T10:01:05;47800.78;;;-142.53;43.64
4133;BME280;2080;51.038;7.008;2023-05-16T10:03:33;47748.75;;;-142.53;43.38
4133;BME280;2080;51.038;7.008;2023-05-16T10:05:59;47760.31;;;-142.53;43.42
4133;BME280;2080;51.038;7.008;2023-05-16T10:08:26;47775.72;;;-142.53;45.20
4133;BME280;2080;51.038;7.008;2023-05-16T10:10:54;47744.91;;;-142.53;43.45
4133;BME280;2080;51.038;7.008;2023-05-16T10:13:42;47791.13;;;-142.53;43.66
4133;BME280;2080;51.038;7.008;2023-05-16T10:16:10;47764.16;;;-142.53;42.98
4133;BME280;2080;51.038;7.008;2023-05-16T10:18:39;47779.59;;;-142.53;41.87
4133;BME280;2080;51.038;7.008;2023-05-16T10:21:09;47798.84;;;-142.53;41.95
4133;BME280;2080;51.038;7.008;2023-05-16T10:23:40;47810.41;;;-142.53;42.25
4133;BME280;2080;51.038;7.008;2023-05-16T10:26:07;47796.91;;;-142.53;39.58
4133;BME280;2080;51.038;7.008;2023-05-16T10:28:36;47760.31;;;-142.53;38.59
4133;BME280;2080;51.038;7.008;2023-05-16T10:31:02;47756.47;;;-142.53;40.87
4133;BME280;2080;51.038;7.008;2023-05-16T10:33:27;47791.13;;;-142.53;38.33
4133;BME280;2080;51.038;7.008;2023-05-16T10:35:54;47779.59;;;-142.53;39.50
4133;BME280;2080;51.038;7.008;2023-05-16T10:38:23;47771.88;;;-142.53;39.36
4133;BME280;2080;51.038;7.008;2023-05-16T10:40:49;47752.63;;;-142.53;40.08
4133;BME280;2080;51.038;7.008;2023-05-16T10:43:23;47771.88;;;-142.53;39.63
4133;BME280;2080;51.038;7.008;2023-05-16T10:45:58;47742.97;;;-142.53;39.03
4133;BME280;2080;51.038;7.008;2023-05-16T10:48:30;47748.75;;;-142.53;38.35
4133;BME280;2080;51.038;7.008;2023-05-16T10:50:58;47729.50;;;-142.53;38.98
4133;BME280;2080;51.038;7.008;2023-05-16T11:01:15;47768.03;;;-142.53;37.91
4133;BME280;2080;51.038;7.008;2023-05-16T11:04:08;47760.31;;;-142.53;38.43
4133;BME280;2080;51.038;7.008;2023-05-16T11:14:25;47795.00;;;-142.53;37.01
4133;BME280;2080;51.038;7.008;2023-05-16T11:17:21;47768.03;;;-142.53;37.01
4133;BME280;2080;51.038;7.008;2023-05-16T11:19:54;47768.03;;;-142.53;36.96
4133;BME280;2080;51.038;7.008;2023-05-16T11:22:29;47717.94;;;-142.53;36.03
4133;BME280;2080;51.038;7.008;2023-05-16T11:25:04;47725.66;;;-142.53;36.86
4133;BME280;2080;51.038;7.008;2023-05-16T11:27:31;47729.50;;;-142.53;36.72
4133;BME280;2080;51.038;7.008;2023-05-16T11:32:33;47812.31;;;-142.53;36.11
4133;BME280;2080;51.038;7.008;2023-05-16T11:35:02;47825.81;;;-142.53;37.88
4133;BME280;2080;51.038;7.008;2023-05-16T11:37:28;47779.59;;;-142.53;37.67
4133;BME280;2080;51.038;7.008;2023-05-16T11:40:05;47796.91;;;-142.53;38.54
4133;BME280;2080;51.038;7.008;2023-05-16T11:42:40;47810.41;;;-142.53;39.15
4133;BME280;2080;51.038;7.008;2023-05-16T11:45:14;47779.59;;;-142.53;39.09
4133;BME280;2080;51.038;7.008;2023-05-16T11:47:45;48033.84;;;-142.53;39.08
4133;BME280;2080;51.038;7.008;2023-05-16T11:50:21;47764.16;;;-142.53;39.30
4133;BME280;2080;51.038;7.008;2023-05-16T11:52:52;47795.00;;;-142.53;39.72
4133;BME280;2080;51.038;7.008;2023-05-16T11:55:23;47773.81;;;-142.53;39.90
4133;BME280;2080;51.038;7.008;2023-05-16T11:57:53;47698.69;;;-142.53;39.30
4133;BME280;2080;51.038;7.008;2023-05-16T12:00:23;47744.91;;;-142.53;39.69
4133;BME280;2080;51.038;7.008;2023-05-16T12:02:59;47783.44;;;-142.53;38.42
4133;BME280;2080;51.038;7.008;2023-05-16T12:05:25;47806.53;;;-142.53;39.14
4133;BME280;2080;51.038;7.008;2023-05-16T12:07:55;47756.47;;;-142.53;39.40
4133;BME280;2080;51.038;7.008;2023-05-16T12:10:23;47744.91;;;-142.53;39.00
4133;BME280;2080;51.038;7.008;2023-05-16T12:12:50;47725.66;;;-142.53;39.53
4133;BME280;2080;51.038;7.008;2023-05-16T12:15:19;47783.44;;;-142.53;39.13
4133;BME280;2080;51.038;7.008;2023-05-16T12:17:45;47808.47;;;-142.53;40.02
4133;BME280;2080;51.038;7.008;2023-05-16T12:20:14;47775.72;;;-142.53;40.47
4133;BME280;2080;51.038;7.008;2023-05-16T12:22:41;47744.91;;;-142.53;40.42
4133;BME280;2080;51.038;7.008;2023-05-16T12:27:54;47744.91;;;-142.53;38.18
4133;BME280;2080;51.038;7.008;2023-05-16T12:30:22;47768.03;;;-142.53;37.41
4133;BME280;2080;51.038;7.008;2023-05-16T12:32:58;47764.16;;;-142.53;37.95
4133;BME280;2080;51.038;7.008;2023-05-16T12:35:28;47764.16;;;-142.53;38.93
4133;BME280;2080;51.038;7.008;2023-05-16T12:37:56;47760.31;;;-142.53;37.75
4133;BME280;2080;51.038;7.008;2023-05-16T12:40:22;47804.63;;;-142.53;37.90
4133;BME280;2080;51.038;7.008;2023-05-16T12:42:49;47779.59;;;-142.53;38.84
4133;BME280;2080;51.038;7.008;2023-05-16T12:45:16;47779.59;;;-142.53;39.98
4133;BME280;2080;51.038;7.008;2023-05-16T12:47:44;47741.06;;;-142.53;39.82
4133;BME280;2080;51.038;7.008;2023-05-16T12:50:14;47787.28;;;-142.53;39.08
4133;BME280;2080;51.038;7.008;2023-05-16T12:52:57;47771.88;;;-142.53;39.83
4133;BME280;2080;51.038;7.008;2023-05-16T12:55:23;47741.06;;;-142.53;41.02
4133;BME280;2080;51.038;7.008;2023-05-16T12:57:49;47820.03;;;-142.53;43.61
4133;BME280;2080;51.038;7.008;2023-05-16T13:00:18;47768.03;;;-142.53;41.83
4133;BME280;2080;51.038;7.008;2023-05-16T13:02:47;47793.06;;;-142.53;41.61
4133;BME280;2080;51.038;7.008;2023-05-16T13:05:13;47727.56;;;-142.53;40.89
4133;BME280;2080;51.038;7.008;2023-05-16T13:07:38;47795.00;;;-142.53;41.19
4133;BME280;2080;51.038;7.008;2023-05-16T13:10:14;47748.75;;;-142.53;42.35
4133;BME280;2080;51.038;7.008;2023-05-16T13:12:42;47775.72;;;-142.53;41.43
4133;BME280;2080;51.038;7.008;2023-05-16T13:15:09;47741.06;;;-142.53;41.13
4133;BME280;2080;51.038;7.008;2023-05-16T13:17:40;47723.72;;;-142.53;38.27
4133;BME280;2080;51.038;7.008;2023-05-16T13:20:06;47746.84;;;-142.53;38.02
4133;BME280;2080;51.038;7.008;2023-05-16T13:22:37;47802.69;;;-142.53;37.05
4133;BME280;2080;51.038;7.008;2023-05-16T13:25:03;47845.06;;;-142.53;37.63
4133;BME280;2080;51.038;7.008;2023-05-16T13:27:29;47764.16;;;-142.53;37.07
4133;BME280;2080;51.038;7.008;2023-05-16T13:29:57;47748.75;;;-142.53;36.79
4133;BME280;2080;51.038;7.008;2023-05-16T13:32:23;47773.81;;;-142.53;37.17
4133;BME280;2080;51.038;7.008;2023-05-16T13:34:49;47777.66;;;-142.53;37.67